createdAt,value
2023-04-06T00:00:40.354Z,0.30
2023-04-06T00:03:07.542Z,0.40
2023-04-06T00:05:34.436Z,0.30
2023-04-06T00:08:01.300Z,0.20
2023-04-06T00:10:28.395Z,0.20
2023-04-06T00:12:57.461Z,0.20
2023-04-06T00:15:24.337Z,0.30
2023-04-06T00:17:51.265Z,0.30
2023-04-06T00:20:19.577Z,0.30
2023-04-06T00:22:46.591Z,0.30
2023-04-06T00:25:13.312Z,0.40
2023-04-06T00:27:40.333Z,0.50
2023-04-06T00:30:08.115Z,0.60
2023-04-06T00:32:36.321Z,0.60
2023-04-06T00:35:04.673Z,0.70
2023-04-06T00:37:31.691Z,0.70
2023-04-06T00:39:58.387Z,0.60
2023-04-06T00:42:28.452Z,0.60
2023-04-06T00:44:57.168Z,0.60
2023-04-06T00:47:26.531Z,0.60
2023-04-06T00:49:55.270Z,0.60
2023-04-06T00:52:22.396Z,0.60
2023-04-06T00:54:51.189Z,0.60
2023-04-06T00:57:20.252Z,0.70
2023-04-06T00:59:53.540Z,0.70
2023-04-06T01:02:20.865Z,0.60
2023-04-06T01:04:50.911Z,0.60
2023-04-06T01:07:25.822Z,0.60
2023-04-06T01:10:26.161Z,0.60
2023-04-06T01:12:57.695Z,0.70
2023-04-06T01:15:50.881Z,0.90
2023-04-06T01:18:28.588Z,0.90
2023-04-06T01:21:09.515Z,0.90
2023-04-06T01:23:36.513Z,0.80
2023-04-06T01:26:03.662Z,0.80
2023-04-06T01:28:31.619Z,0.70
2023-04-06T01:31:17.337Z,0.70
2023-04-06T01:33:48.352Z,0.50
2023-04-06T01:36:18.247Z,0.30
2023-04-06T01:38:48.975Z,0.20
2023-04-06T01:41:18.641Z,0.20
2023-04-06T01:43:55.318Z,0.00
2023-04-06T01:46:25.248Z,-0.10
2023-04-06T01:48:52.826Z,-0.20
2023-04-06T01:51:31.800Z,-0.20
2023-04-06T01:54:01.270Z,-0.20
2023-04-06T01:56:38.450Z,-0.30
2023-04-06T01:59:21.972Z,-0.30
2023-04-06T02:01:48.765Z,-0.50
2023-04-06T02:04:15.662Z,-0.50
2023-04-06T02:06:44.011Z,-0.70
2023-04-06T02:09:12.796Z,-0.60
2023-04-06T02:11:39.821Z,-0.70
2023-04-06T02:14:06.819Z,-0.70
2023-04-06T02:16:39.118Z,-0.80
2023-04-06T02:19:06.020Z,-0.80
2023-04-06T02:21:32.836Z,-0.90
2023-04-06T02:23:59.503Z,-0.90
2023-04-06T02:26:26.229Z,-0.90
2023-04-06T02:28:53.267Z,-1.00
2023-04-06T02:31:20.366Z,-1.00
2023-04-06T02:33:47.100Z,-1.00
2023-04-06T02:36:15.730Z,-1.00
2023-04-06T02:38:42.454Z,-1.00
2023-04-06T02:41:09.790Z,-1.10
2023-04-06T02:43:37.703Z,-1.00
2023-04-06T02:46:10.444Z,-1.00
2023-04-06T02:48:39.275Z,-1.10
2023-04-06T02:51:06.096Z,-1.10
2023-04-06T02:53:33.340Z,-1.10
2023-04-06T02:56:00.202Z,-1.10
2023-04-06T02:58:34.935Z,-1.10
2023-04-06T03:01:01.756Z,-1.10
2023-04-06T03:03:28.539Z,-1.20
2023-04-06T03:05:59.379Z,-1.10
2023-04-06T03:08:28.838Z,-1.00
2023-04-06T03:10:55.792Z,-1.10
2023-04-06T03:13:29.411Z,-1.10
2023-04-06T03:15:58.249Z,-1.00
2023-04-06T03:18:26.833Z,-1.10
2023-04-06T03:20:56.224Z,-1.10
2023-04-06T03:23:27.598Z,-1.10
2023-04-06T03:25:58.558Z,-1.00
2023-04-06T03:28:25.309Z,-1.00
2023-04-06T03:31:04.119Z,-1.10
2023-04-06T03:33:43.040Z,-1.20
2023-04-06T03:36:15.543Z,-1.10
2023-04-06T03:38:44.103Z,-1.10
2023-04-06T03:41:13.243Z,-1.20
2023-04-06T03:43:44.204Z,-1.20
2023-04-06T03:46:11.296Z,-1.20
2023-04-06T03:48:38.110Z,-1.20
2023-04-06T03:51:06.736Z,-1.20
2023-04-06T03:53:33.571Z,-1.30
2023-04-06T03:56:00.953Z,-1.30
2023-04-06T03:58:28.987Z,-1.40
2023-04-06T04:00:55.643Z,-1.30
2023-04-06T04:03:24.388Z,-1.40
2023-04-06T04:05:51.875Z,-1.40
2023-04-06T04:08:18.773Z,-1.40
2023-04-06T04:10:48.412Z,-1.40
2023-04-06T04:13:15.343Z,-1.40
2023-04-06T04:15:45.120Z,-1.40
2023-04-06T04:18:16.466Z,-1.40
2023-04-06T04:20:43.161Z,-1.50
2023-04-06T04:23:11.757Z,-1.50
2023-04-06T04:25:38.523Z,-1.50
2023-04-06T04:28:05.445Z,-1.50
2023-04-06T04:30:32.675Z,-1.40
2023-04-06T04:32:59.446Z,-1.40
2023-04-06T04:35:27.716Z,-1.50
2023-04-06T04:37:54.518Z,-1.50
2023-04-06T04:40:21.246Z,-1.30
2023-04-06T04:42:52.894Z,-1.30
2023-04-06T04:45:27.179Z,-1.20
2023-04-06T04:47:54.679Z,-1.40
2023-04-06T04:50:24.992Z,-1.40
2023-04-06T04:52:56.087Z,-1.40
2023-04-06T04:55:25.733Z,-1.40
2023-04-06T04:57:55.169Z,-1.30
2023-04-06T05:00:28.459Z,-1.30
2023-04-06T05:02:58.298Z,-1.20
2023-04-06T05:05:28.479Z,-1.40
2023-04-06T05:07:55.563Z,-1.50
2023-04-06T05:10:31.566Z,-1.60
2023-04-06T05:13:01.311Z,-1.50
2023-04-06T05:15:28.772Z,-1.50
2023-04-06T05:18:02.321Z,-1.40
2023-04-06T05:20:33.037Z,-1.40
2023-04-06T05:23:00.290Z,-1.40
2023-04-06T05:25:27.572Z,-1.30
2023-04-06T05:27:57.723Z,-1.40
2023-04-06T05:30:29.702Z,-1.30
2023-04-06T05:32:56.510Z,-1.40
2023-04-06T05:35:26.074Z,-1.30
2023-04-06T05:37:56.931Z,-1.20
2023-04-06T05:40:26.076Z,-1.00
2023-04-06T05:42:53.466Z,-0.90
2023-04-06T05:45:22.096Z,-0.80
2023-04-06T05:47:52.930Z,-0.80
2023-04-06T05:50:24.607Z,-0.70
2023-04-06T05:52:51.524Z,-0.70
2023-04-06T05:55:21.496Z,-0.50
2023-04-06T05:57:54.687Z,-0.60
2023-04-06T06:00:22.178Z,-0.60
2023-04-06T06:03:00.044Z,-0.60
2023-04-06T06:05:30.672Z,-0.50
2023-04-06T06:08:03.140Z,-0.50
2023-04-06T06:10:30.703Z,-0.30
2023-04-06T06:12:58.964Z,-0.20
2023-04-06T06:15:26.968Z,-0.10
2023-04-06T06:17:53.649Z,0.10
2023-04-06T06:20:20.824Z,0.20
2023-04-06T06:22:48.261Z,0.40
2023-04-06T06:25:18.648Z,0.50
2023-04-06T06:27:47.485Z,0.70
2023-04-06T06:30:16.627Z,0.90
2023-04-06T06:32:45.026Z,1.10
2023-04-06T06:35:11.741Z,1.40
2023-04-06T06:37:38.885Z,1.60
2023-04-06T06:40:06.643Z,1.80
2023-04-06T06:42:35.616Z,2.00
2023-04-06T06:45:22.590Z,2.20
2023-04-06T06:47:49.472Z,2.30
2023-04-06T06:50:16.417Z,2.40
2023-04-06T06:52:43.565Z,2.50
2023-04-06T06:55:11.789Z,2.70
2023-04-06T06:57:39.234Z,2.80
2023-04-06T07:00:08.333Z,2.90
2023-04-06T07:02:36.726Z,3.00
2023-04-06T07:05:10.213Z,3.10
2023-04-06T07:07:43.497Z,3.20
2023-04-06T07:10:10.861Z,3.40
2023-04-06T07:12:38.926Z,3.70
2023-04-06T07:15:06.285Z,4.10
2023-04-06T07:17:34.153Z,4.30
2023-04-06T07:20:01.025Z,4.50
2023-04-06T07:22:27.691Z,4.90
2023-04-06T07:24:54.540Z,5.20
2023-04-06T07:27:21.302Z,5.50
2023-04-06T07:29:48.325Z,5.80
2023-04-06T07:32:15.627Z,5.80
2023-04-06T07:34:42.596Z,5.70
2023-04-06T07:37:09.320Z,5.90
2023-04-06T07:39:36.340Z,5.80
2023-04-06T07:42:03.090Z,6.00
2023-04-06T07:44:29.780Z,6.20
2023-04-06T07:46:57.315Z,6.50
2023-04-06T07:49:24.186Z,6.60
2023-04-06T07:51:51.257Z,6.60
2023-04-06T07:54:18.003Z,6.70
2023-04-06T07:56:45.596Z,6.90
2023-04-06T07:59:12.471Z,6.90
2023-04-06T08:01:39.271Z,6.80
2023-04-06T08:04:06.132Z,7.20
2023-04-06T08:06:33.254Z,7.70
2023-04-06T08:09:00.032Z,7.70
2023-04-06T08:11:27.536Z,7.80
2023-04-06T08:13:55.108Z,7.70
2023-04-06T08:16:21.847Z,7.80
2023-04-06T08:18:48.620Z,8.10
2023-04-06T08:21:15.622Z,8.30
2023-04-06T08:23:42.347Z,8.40
2023-04-06T08:26:09.085Z,8.50
2023-04-06T08:28:36.404Z,8.70
2023-04-06T08:31:06.989Z,8.80
2023-04-06T08:33:37.343Z,8.70
2023-04-06T08:36:14.518Z,9.00
2023-04-06T08:38:42.347Z,9.00
2023-04-06T08:41:13.219Z,9.10
2023-04-06T08:44:01.985Z,9.00
2023-04-06T08:46:31.434Z,9.00
2023-04-06T08:49:00.583Z,9.30
2023-04-06T08:51:34.228Z,9.20
2023-04-06T08:54:01.723Z,9.50
2023-04-06T08:56:29.180Z,9.50
2023-04-06T08:58:56.750Z,9.80
2023-04-06T09:01:28.157Z,9.80
2023-04-06T09:04:08.189Z,9.70
2023-04-06T09:06:37.879Z,9.80
2023-04-06T09:09:04.835Z,10.30
2023-04-06T09:11:46.700Z,10.30
2023-04-06T09:14:13.709Z,10.20
2023-04-06T09:16:42.565Z,10.20
2023-04-06T09:19:10.314Z,10.00
2023-04-06T09:21:38.009Z,10.10
2023-04-06T09:24:05.547Z,10.20
2023-04-06T09:26:34.624Z,10.40
2023-04-06T09:29:02.419Z,10.50
2023-04-06T09:31:33.760Z,10.20
2023-04-06T09:34:01.853Z,10.20
2023-04-06T09:36:39.378Z,10.20
2023-04-06T09:39:06.293Z,10.20
2023-04-06T09:41:42.180Z,10.20
2023-04-06T09:44:11.125Z,10.30
2023-04-06T09:47:05.965Z,10.40
2023-04-06T09:49:35.707Z,10.60
2023-04-06T09:52:12.232Z,10.60
2023-04-06T09:54:39.457Z,10.80
2023-04-06T09:57:11.185Z,10.70
2023-04-06T09:59:45.657Z,11.00
2023-04-06T10:02:51.322Z,11.20
2023-04-06T10:05:59.476Z,11.00
2023-04-06T10:08:31.680Z,11.00
2023-04-06T10:11:01.514Z,11.10
2023-04-06T10:13:28.403Z,11.40
2023-04-06T10:15:55.896Z,11.60
2023-04-06T10:18:22.953Z,11.20
2023-04-06T10:21:11.099Z,10.90
2023-04-06T10:23:44.556Z,11.20
2023-04-06T10:26:17.413Z,11.40
2023-04-06T10:28:46.907Z,11.70
2023-04-06T10:31:13.844Z,11.90
2023-04-06T10:33:53.951Z,11.70
2023-04-06T10:36:26.472Z,11.60
2023-04-06T10:39:02.636Z,11.70
2023-04-06T10:41:54.154Z,11.60
2023-04-06T10:44:25.373Z,12.00
2023-04-06T10:47:02.516Z,12.10
2023-04-06T10:49:29.238Z,11.90
2023-04-06T10:51:57.215Z,12.10
2023-04-06T10:54:26.762Z,12.20
2023-04-06T10:56:53.459Z,12.30
2023-04-06T10:59:22.477Z,12.40
2023-04-06T11:01:49.980Z,12.40
2023-04-06T11:04:18.944Z,12.50
2023-04-06T11:06:50.704Z,12.30
2023-04-06T11:09:28.655Z,12.40
2023-04-06T11:11:57.109Z,12.50
2023-04-06T11:14:24.274Z,12.40
2023-04-06T11:16:52.234Z,12.50
2023-04-06T11:19:19.302Z,12.50
2023-04-06T11:21:48.472Z,12.60
2023-04-06T11:24:16.426Z,12.70
2023-04-06T11:26:52.005Z,12.60
2023-04-06T11:29:20.923Z,12.40
2023-04-06T11:31:51.938Z,12.40
2023-04-06T11:34:23.955Z,12.60
2023-04-06T11:36:57.512Z,12.80
2023-04-06T11:39:26.292Z,12.60
2023-04-06T11:42:04.486Z,12.60
2023-04-06T11:44:43.581Z,12.80
2023-04-06T11:47:12.316Z,12.70
2023-04-06T11:49:41.118Z,12.70
2023-04-06T11:52:21.650Z,12.70
2023-04-06T11:54:49.953Z,12.70
2023-04-06T11:57:20.752Z,12.70
2023-04-06T11:59:47.781Z,12.70
2023-04-06T12:02:14.669Z,12.60
2023-04-06T12:04:41.369Z,12.30
2023-04-06T12:07:08.371Z,12.40
2023-04-06T12:09:36.795Z,12.90
2023-04-06T12:12:04.477Z,12.90
2023-04-06T12:14:31.672Z,13.10
2023-04-06T12:16:59.307Z,13.10
2023-04-06T12:19:26.963Z,13.20
2023-04-06T12:21:58.572Z,13.30
2023-04-06T12:24:25.372Z,13.20
2023-04-06T12:26:59.489Z,13.20
2023-04-06T12:29:29.905Z,13.20
2023-04-06T12:31:57.181Z,13.30
2023-04-06T12:34:23.988Z,13.40
2023-04-06T12:36:51.201Z,13.30
2023-04-06T12:39:21.656Z,13.10
2023-04-06T12:41:48.640Z,13.00
2023-04-06T12:44:15.523Z,13.30
2023-04-06T12:46:44.078Z,13.70
2023-04-06T12:49:10.926Z,13.80
2023-04-06T12:51:37.742Z,13.80
2023-04-06T12:54:04.599Z,13.70
2023-04-06T12:56:35.550Z,13.50
2023-04-06T12:59:02.454Z,13.70
2023-04-06T13:01:29.516Z,13.80
2023-04-06T13:03:58.005Z,13.80
2023-04-06T13:06:28.257Z,13.70
2023-04-06T13:08:55.335Z,13.60
2023-04-06T13:11:26.146Z,13.40
2023-04-06T13:13:53.847Z,13.60
2023-04-06T13:16:20.657Z,13.70
2023-04-06T13:18:47.568Z,13.70
2023-04-06T13:21:17.976Z,14.00
2023-04-06T13:23:45.240Z,13.90
2023-04-06T13:26:14.126Z,13.70
2023-04-06T13:28:41.316Z,13.90
2023-04-06T13:31:09.036Z,14.00
2023-04-06T13:33:35.896Z,14.10
2023-04-06T13:36:03.258Z,14.40
2023-04-06T13:38:31.215Z,14.40
2023-04-06T13:40:58.531Z,14.20
2023-04-06T13:43:27.044Z,14.20
2023-04-06T13:45:56.834Z,14.50
2023-04-06T13:48:23.921Z,14.40
2023-04-06T13:50:50.788Z,14.30
2023-04-06T13:53:17.564Z,14.20
2023-04-06T13:55:44.545Z,14.00
2023-04-06T13:58:11.707Z,14.00
2023-04-06T14:00:38.998Z,14.20
2023-04-06T14:03:06.922Z,14.40
2023-04-06T14:05:34.288Z,14.00
2023-04-06T14:08:01.172Z,14.00
2023-04-06T14:10:28.563Z,14.00
2023-04-06T14:12:56.383Z,13.90
2023-04-06T14:15:23.382Z,13.90
2023-04-06T14:17:50.274Z,14.00
2023-04-06T14:20:16.972Z,13.90
2023-04-06T14:22:44.166Z,13.90
2023-04-06T14:25:12.018Z,14.00
2023-04-06T14:27:38.828Z,14.20
2023-04-06T14:30:05.995Z,14.20
2023-04-06T14:32:33.201Z,13.90
2023-04-06T14:34:59.893Z,13.90
2023-04-06T14:37:27.118Z,13.80
2023-04-06T14:39:53.881Z,13.60
2023-04-06T14:42:20.620Z,13.40
2023-04-06T14:44:47.638Z,13.30
2023-04-06T14:47:20.939Z,13.30
2023-04-06T14:49:48.597Z,13.20
2023-04-06T14:52:15.396Z,13.20
2023-04-06T14:54:42.112Z,13.00
2023-04-06T14:57:08.733Z,12.90
2023-04-06T14:59:37.876Z,12.90
2023-04-06T15:02:07.783Z,12.90
2023-04-06T15:04:38.116Z,13.20
2023-04-06T15:07:05.009Z,13.30
2023-04-06T15:09:32.042Z,13.50
2023-04-06T15:11:58.953Z,13.30
2023-04-06T15:14:25.789Z,13.10
2023-04-06T15:16:52.496Z,13.00
2023-04-06T15:19:19.224Z,12.90
2023-04-06T15:21:52.031Z,12.90
2023-04-06T15:24:18.793Z,12.60
2023-04-06T15:26:50.257Z,12.60
2023-04-06T15:29:16.873Z,12.50
2023-04-06T15:31:44.898Z,12.60
2023-04-06T15:34:12.012Z,12.50
2023-04-06T15:36:38.784Z,12.60
2023-04-06T15:39:09.281Z,12.60
2023-04-06T15:41:36.579Z,12.60
2023-04-06T15:44:03.362Z,12.60
2023-04-06T15:46:30.377Z,12.70
2023-04-06T15:48:57.509Z,12.80
2023-04-06T15:51:33.633Z,12.70
2023-04-06T15:54:00.309Z,12.70
2023-04-06T15:56:26.929Z,12.70
2023-04-06T15:58:53.612Z,12.60
2023-04-06T16:01:20.468Z,12.70
2023-04-06T16:03:47.371Z,12.60
2023-04-06T16:06:14.164Z,12.50
2023-04-06T16:08:41.265Z,12.40
2023-04-06T16:11:08.719Z,12.40
2023-04-06T16:13:36.288Z,12.50
2023-04-06T16:16:03.978Z,12.50
2023-04-06T16:18:31.418Z,12.40
2023-04-06T16:21:02.603Z,12.50
2023-04-06T16:23:29.473Z,12.50
2023-04-06T16:25:57.643Z,12.40
2023-04-06T16:28:25.427Z,12.40
2023-04-06T16:30:52.572Z,12.40
2023-04-06T16:33:19.388Z,12.30
2023-04-06T16:35:47.334Z,12.30
2023-04-06T16:38:14.650Z,12.30
2023-04-06T16:40:41.493Z,12.40
2023-04-06T16:43:09.628Z,12.40
2023-04-06T16:45:36.863Z,12.30
2023-04-06T16:48:03.579Z,12.30
2023-04-06T16:50:30.309Z,12.20
2023-04-06T16:52:57.010Z,12.20
2023-04-06T16:55:23.852Z,12.00
2023-04-06T16:57:50.746Z,11.90
2023-04-06T17:00:17.898Z,11.80
2023-04-06T17:02:47.479Z,11.80
2023-04-06T17:05:14.480Z,11.70
2023-04-06T17:07:41.250Z,11.60
2023-04-06T17:10:08.658Z,11.60
2023-04-06T17:12:35.494Z,11.60
2023-04-06T17:15:02.603Z,11.40
2023-04-06T17:17:29.275Z,11.40
2023-04-06T17:19:55.968Z,11.30
2023-04-06T17:22:22.573Z,11.30
2023-04-06T17:24:49.298Z,11.30
2023-04-06T17:27:16.134Z,11.20
2023-04-06T17:29:42.822Z,11.20
2023-04-06T17:32:10.339Z,11.20
2023-04-06T17:34:36.972Z,11.10
2023-04-06T17:37:03.630Z,11.10
2023-04-06T17:39:30.440Z,11.10
2023-04-06T17:41:57.124Z,11.00
2023-04-06T17:44:23.872Z,11.00
2023-04-06T17:46:50.544Z,10.90
2023-04-06T17:49:17.207Z,10.80
2023-04-06T17:51:44.977Z,10.80
2023-04-06T17:54:11.776Z,10.80
2023-04-06T17:56:38.917Z,10.70
2023-04-06T17:59:07.952Z,10.60
2023-04-06T18:01:34.872Z,10.60
2023-04-06T18:04:01.627Z,10.60
2023-04-06T18:06:28.306Z,10.60
2023-04-06T18:08:55.166Z,10.60
2023-04-06T18:11:21.997Z,10.50
2023-04-06T18:13:49.032Z,10.50
2023-04-06T18:16:17.387Z,10.50
2023-04-06T18:18:44.352Z,10.50
2023-04-06T18:21:10.991Z,10.50
2023-04-06T18:23:38.236Z,10.40
2023-04-06T18:26:05.914Z,10.40
2023-04-06T18:28:33.476Z,10.40
2023-04-06T18:31:00.496Z,10.40
2023-04-06T18:33:27.836Z,10.30
2023-04-06T18:35:56.822Z,10.30
2023-04-06T18:38:23.868Z,10.30
2023-04-06T18:40:50.532Z,10.20
2023-04-06T18:43:17.161Z,10.10
2023-04-06T18:45:43.969Z,10.10
2023-04-06T18:48:10.716Z,10.00
2023-04-06T18:50:37.352Z,9.90
2023-04-06T18:53:04.331Z,9.90
2023-04-06T18:55:33.837Z,9.80
2023-04-06T18:58:00.850Z,9.80
2023-04-06T19:00:27.582Z,9.90
2023-04-06T19:02:54.588Z,9.90
2023-04-06T19:05:22.145Z,9.90
2023-04-06T19:07:52.087Z,9.80
2023-04-06T19:10:19.340Z,9.80
2023-04-06T19:12:46.698Z,9.80
2023-04-06T19:15:13.492Z,9.60
2023-04-06T19:17:40.506Z,9.60
2023-04-06T19:20:08.320Z,9.60
2023-04-06T19:22:38.232Z,9.50
2023-04-06T19:25:05.896Z,9.50
2023-04-06T19:27:32.685Z,9.50
2023-04-06T19:30:00.211Z,9.40
2023-04-06T19:32:27.097Z,9.40
2023-04-06T19:34:54.051Z,9.40
2023-04-06T19:37:21.436Z,9.40
2023-04-06T19:39:48.366Z,9.40
2023-04-06T19:42:21.427Z,9.40
2023-04-06T19:44:48.503Z,9.40
2023-04-06T19:47:15.288Z,9.40
2023-04-06T19:49:42.027Z,9.30
2023-04-06T19:52:10.212Z,9.30
2023-04-06T19:54:37.764Z,9.40
2023-04-06T19:57:04.622Z,9.30
2023-04-06T19:59:31.845Z,9.30
2023-04-06T20:01:58.519Z,9.30
2023-04-06T20:04:25.660Z,9.30
2023-04-06T20:06:53.424Z,9.30
2023-04-06T20:09:21.698Z,9.40
2023-04-06T20:11:48.562Z,9.30
2023-04-06T20:14:15.979Z,9.20
2023-04-06T20:16:42.649Z,9.30
2023-04-06T20:19:09.359Z,9.20
2023-04-06T20:21:37.457Z,9.20
2023-04-06T20:24:05.559Z,9.20
2023-04-06T20:26:32.208Z,9.20
2023-04-06T20:28:58.814Z,9.20
2023-04-06T20:31:28.852Z,9.10
2023-04-06T20:33:55.908Z,9.10
2023-04-06T20:36:22.599Z,9.00
2023-04-06T20:38:49.456Z,9.00
2023-04-06T20:41:16.345Z,8.90
2023-04-06T20:43:42.989Z,8.90
2023-04-06T20:46:15.755Z,8.90
2023-04-06T20:48:42.472Z,8.80
2023-04-06T20:51:17.336Z,8.80
2023-04-06T20:53:43.967Z,8.70
2023-04-06T20:56:10.572Z,8.70
2023-04-06T20:58:37.191Z,8.70
2023-04-06T21:01:04.083Z,8.60
2023-04-06T21:03:30.959Z,8.60
2023-04-06T21:05:58.917Z,8.60
2023-04-06T21:08:25.577Z,8.60
2023-04-06T21:10:52.293Z,8.50
2023-04-06T21:13:18.912Z,8.50
2023-04-06T21:15:45.594Z,8.50
2023-04-06T21:18:12.344Z,8.40
2023-04-06T21:20:39.870Z,8.40
2023-04-06T21:23:06.566Z,8.50
2023-04-06T21:25:35.897Z,8.50
2023-04-06T21:28:02.804Z,8.50
2023-04-06T21:30:29.524Z,8.60
2023-04-06T21:32:56.222Z,8.60
2023-04-06T21:35:22.831Z,8.60
2023-04-06T21:37:49.879Z,8.70
2023-04-06T21:40:18.865Z,8.70
2023-04-06T21:42:45.710Z,8.70
2023-04-06T21:45:12.659Z,8.80
2023-04-06T21:47:39.909Z,8.70
2023-04-06T21:50:07.079Z,8.60
2023-04-06T21:52:33.742Z,8.60
2023-04-06T21:55:00.464Z,8.50
2023-04-06T21:57:27.196Z,8.30
2023-04-06T21:59:54.210Z,8.20
2023-04-06T22:02:21.645Z,8.20
2023-04-06T22:04:49.328Z,8.10
2023-04-06T22:07:16.043Z,8.10
2023-04-06T22:09:50.031Z,8.10
2023-04-06T22:12:18.031Z,8.00
2023-04-06T22:14:44.731Z,7.90
2023-04-06T22:17:11.569Z,7.90
2023-04-06T22:19:38.450Z,7.80
2023-04-06T22:22:05.072Z,7.80
2023-04-06T22:24:31.700Z,7.70
2023-04-06T22:26:58.363Z,7.60
2023-04-06T22:29:25.150Z,7.60
2023-04-06T22:31:51.935Z,7.50
2023-04-06T22:34:18.902Z,7.40
2023-04-06T22:36:45.702Z,7.30
2023-04-06T22:39:12.350Z,7.20
2023-04-06T22:41:39.013Z,7.20
2023-04-06T22:44:05.645Z,7.20
2023-04-06T22:46:32.262Z,7.20
2023-04-06T22:48:58.987Z,7.10
2023-04-06T22:51:27.911Z,7.10
2023-04-06T22:53:54.722Z,7.00
2023-04-06T22:56:22.087Z,7.00
2023-04-06T22:58:50.887Z,7.00
2023-04-06T23:01:17.592Z,7.00
2023-04-06T23:03:44.457Z,6.90
2023-04-06T23:06:11.445Z,6.90
2023-04-06T23:08:38.059Z,6.90
2023-04-06T23:11:04.690Z,6.90
2023-04-06T23:13:31.355Z,6.90
2023-04-06T23:15:58.000Z,6.90
2023-04-06T23:18:24.613Z,6.80
2023-04-06T23:20:51.216Z,6.80
2023-04-06T23:23:17.829Z,6.80
2023-04-06T23:25:44.411Z,6.80
2023-04-06T23:28:11.223Z,6.80
2023-04-06T23:30:37.895Z,6.80
2023-04-06T23:33:04.999Z,6.80
2023-04-06T23:35:31.720Z,6.80
2023-04-06T23:37:59.225Z,6.70
2023-04-06T23:40:26.227Z,6.80
2023-04-06T23:42:52.915Z,6.80
2023-04-06T23:45:19.740Z,6.80
2023-04-06T23:47:46.393Z,6.70
2023-04-06T23:50:13.029Z,6.70
2023-04-06T23:52:39.636Z,6.70
2023-04-06T23:55:07.078Z,6.60
2023-04-06T23:57:33.684Z,6.60
